Time;durP1;ratioP1;P1;durP2;ratioP2;P2;SDS_P1;SDS_P2;PMS_P1;PMS_P2;Temp;Humidity;BMP_temperature;BMP_pressure;BME280_temperature;BME280_humidity;BME280_pressure;Samples;Min_cycle;Max_cycle;Signal;HPM_P1;HPM_P2
2022/02/05 11:51:16;;;;;;;;;;;2.60;74.20;;;;;;4932160;29;19934;-93
2022/02/05 11:54:44;;;;;;;;;;;2.60;74.70;;;;;;4928970;29;19925;-92
2022/02/05 11:57:11;;;;;;;;;;;2.60;75.40;;;;;;4884144;29;19986;-92
2022/02/05 12:00:05;;;;;;;;;;;2.60;75.60;;;;;;4935545;29;19917;-90
2022/02/05 12:02:44;;;;;;;;;;;2.60;76.00;;;;;;4923704;29;19911;-90
2022/02/05 12:05:19;;;;;;;;;;;2.60;77.20;;;;;;4932415;29;20014;-91
2022/02/05 12:08:04;;;;;;;;;;;2.60;77.50;;;;;;4919958;29;19915;-91
2022/02/05 12:10:32;;;;;;;;;;;2.60;77.10;;;;;;4930370;29;19914;-90
2022/02/05 12:13:22;;;;;;;;;;;2.50;77.10;;;;;;4939018;29;19949;-90
2022/02/05 12:15:51;;;;;;;;;;;2.40;78.40;;;;;;4923889;29;19927;-90
2022/02/05 12:18:23;;;;;;;;;;;2.40;79.40;;;;;;4940395;29;19911;-91
2022/02/05 12:21:11;;;;;;;;;;;2.40;80.20;;;;;;4939767;29;19914;-90
2022/02/05 12:26:11;;;;;;;;;;;2.20;80.10;;;;;;4922033;29;19919;-90
2022/02/05 12:28:44;;;;;;;;;;;2.10;80.20;;;;;;4922209;29;19911;-91
2022/02/05 12:31:21;;;;;;;;;;;2.10;80.80;;;;;;4905524;29;19915;-90
2022/02/05 12:33:56;;;;;;;;;;;2.00;82.50;;;;;;4921044;29;20382;-90
2022/02/05 12:36:50;;;;;;;;;;;1.90;82.30;;;;;;4921088;29;19918;-90
2022/02/05 12:39:37;;;;;;;;;;;1.80;82.90;;;;;;4877805;29;19918;-90
2022/02/05 12:42:11;;;;;;;;;;;1.80;83.30;;;;;;4917975;29;19911;-91
2022/02/05 12:44:42;;;;;;;;;;;1.70;85.00;;;;;;4927377;29;19921;-90
2022/02/05 12:47:44;;;;;;;;;;;1.70;85.00;;;;;;4923259;29;19911;-89
2022/02/05 12:50:14;;;;;;;;;;;1.70;86.30;;;;;;4934332;29;19958;-90
2022/02/05 12:52:56;;;;;;;;;;;1.80;86.30;;;;;;4903870;29;20383;-88
2022/02/05 12:55:25;;;;;;;;;;;1.80;85.30;;;;;;4905233;29;20034;-90
2022/02/05 12:58:01;;;;;;;;;;;1.70;86.80;;;;;;4919757;29;19915;-90
2022/02/05 13:00:30;;;;;;;;;;;1.80;85.10;;;;;;4933575;29;19915;-90
2022/02/05 13:02:56;;;;;;;;;;;1.70;85.10;;;;;;4937878;29;19934;-90
2022/02/05 13:05:41;;;;;;;;;;;1.70;85.90;;;;;;4906465;29;20363;-90
2022/02/05 13:08:08;;;;;;;;;;;1.80;86.20;;;;;;4938194;29;19922;-90
2022/02/05 13:10:42;;;;;;;;;;;1.80;86.30;;;;;;4922237;29;19918;-90
2022/02/05 13:13:21;;;;;;;;;;;1.80;86.50;;;;;;4902805;29;19911;-91
2022/02/05 13:15:54;;;;;;;;;;;1.80;86.60;;;;;;4903368;29;19919;-91
2022/02/05 13:18:30;;;;;;;;;;;1.80;85.90;;;;;;4910924;29;19918;-91
2022/02/05 13:26:40;;;;;;;;;;;1.60;87.60;;;;;;4925632;29;19917;-90
2022/02/05 13:29:24;;;;;;;;;;;1.60;87.50;;;;;;4922697;29;20355;-91
2022/02/05 13:34:35;;;;;;;;;;;1.50;87.80;;;;;;4919532;29;19942;-88
2022/02/05 13:39:55;;;;;;;;;;;1.40;88.60;;;;;;4919561;29;19911;-88
2022/02/05 13:42:25;;;;;;;;;;;1.40;88.90;;;;;;4902656;29;20343;-88
2022/02/05 13:47:33;;;;;;;;;;;1.40;90.20;;;;;;4938637;29;19965;-88
2022/02/05 13:50:00;;;;;;;;;;;1.40;90.20;;;;;;4935980;29;20374;-88
2022/02/05 13:52:31;;;;;;;;;;;1.40;90.10;;;;;;4936642;29;19946;-88
2022/02/05 13:54:57;;;;;;;;;;;1.40;90.10;;;;;;4919708;29;19919;-88
2022/02/05 13:57:23;;;;;;;;;;;1.30;90.10;;;;;;4921795;29;20363;-87
2022/02/05 13:59:55;;;;;;;;;;;1.30;90.20;;;;;;4929164;29;19922;-88
2022/02/05 14:02:21;;;;;;;;;;;1.40;90.10;;;;;;4934214;29;20362;-87
2022/02/05 14:05:05;;;;;;;;;;;1.40;90.10;;;;;;4936526;29;19914;-87
2022/02/05 14:07:43;;;;;;;;;;;1.30;90.40;;;;;;4934515;29;19911;-88
2022/02/05 14:10:09;;;;;;;;;;;1.30;90.30;;;;;;4929110;29;19919;-88
2022/02/05 14:12:45;;;;;;;;;;;1.30;90.50;;;;;;4901549;29;20012;-87
2022/02/05 14:15:12;;;;;;;;;;;1.20;90.50;;;;;;4900927;29;19979;-87
2022/02/05 14:17:38;;;;;;;;;;;1.20;90.50;;;;;;4885552;29;19922;-87
2022/02/05 14:20:04;;;;;;;;;;;1.20;90.60;;;;;;4918942;29;19911;-88
2022/02/05 14:22:33;;;;;;;;;;;1.20;90.70;;;;;;4901519;29;19911;-88
2022/02/05 14:25:03;;;;;;;;;;;1.20;91.00;;;;;;4919329;29;19915;-88
2022/02/05 14:27:32;;;;;;;;;;;1.20;90.90;;;;;;4920815;29;19923;-92
2022/02/05 14:30:26;;;;;;;;;;;1.10;90.90;;;;;;4911116;29;19921;-95
2022/02/05 15:51:24;;;;;;;;;;;0.70;94.30;;;;;;2067933;23;20311;-95
2022/02/05 15:54:15;;;;;;;;;;;;;;;;;;;;;
2022/02/05 15:57:29;;;;;;;;;;;;;;;;;;;;;
2022/02/05 16:00:33;;;;;;;;;;;;;;;;;;;;;
2022/02/05 16:06:29;;;;;;;;;;;0.70;94.80;;;;;;4901078;29;20316;-94
2022/02/05 16:12:38;;;;;;;;;;;;;;;;;;;;;
2022/02/05 16:18:34;;;;;;;;;;;0.80;95.30;;;;;;4878321;29;20014;-93
2022/02/05 16:21:44;;;;;;;;;;;;;;;;;;;;;
2022/02/05 16:24:39;;;;;;;;;;;;;;;;;;;;;
2022/02/05 16:34:11;;;;;;;;;;;;;;;;;;;;;
2022/02/05 16:36:45;;;;;;;;;;;0.70;95.50;;;;;;4862416;29;19923;-93
2022/02/05 16:39:55;;;;;;;;;;;;;;;;;;;;;
2022/02/05 16:42:34;;;;;;;;;;;0.60;95.80;;;;;;4900289;29;20386;-93
2022/02/05 16:45:25;;;;;;;;;;;0.60;96.00;;;;;;4900202;29;19931;-94
2022/02/05 16:48:39;;;;;;;;;;;0.60;96.50;;;;;;4899164;29;19916;-93
2022/02/05 16:54:28;;;;;;;;;;;0.60;96.20;;;;;;4899158;29;19916;-92
2022/02/05 16:57:01;;;;;;;;;;;0.70;96.00;;;;;;4902719;29;19974;-93
2022/02/05 16:59:56;;;;;;;;;;;0.60;96.00;;;;;;4908201;29;19912;-93
2022/02/05 17:02:50;;;;;;;;;;;0.60;96.00;;;;;;4903804;29;19922;-93
2022/02/05 17:05:38;;;;;;;;;;;0.60;96.10;;;;;;4900619;29;19920;-93
2022/02/05 17:10:56;;;;;;;;;;;0.60;96.40;;;;;;4840953;29;20375;-92
2022/02/05 17:13:40;;;;;;;;;;;0.50;96.50;;;;;;4900854;29;20392;-92
2022/02/05 17:16:17;;;;;;;;;;;0.50;96.50;;;;;;4900531;29;19993;-93
2022/02/05 17:19:06;;;;;;;;;;;;;;;;;;;;;
2022/02/05 17:22:07;;;;;;;;;;;;;;;;;;;;;
2022/02/05 17:24:47;;;;;;;;;;;0.60;96.60;;;;;;4886233;29;19911;-93
2022/02/05 17:33:58;;;;;;;;;;;;;;;;;;;;;
2022/02/05 17:37:03;;;;;;;;;;;0.60;96.60;;;;;;4869822;29;19929;-93
2022/02/05 17:46:06;;;;;;;;;;;0.80;96.60;;;;;;4843162;29;20374;-92
2022/02/05 17:52:01;;;;;;;;;;;;;;;;;;;;;
2022/02/05 17:54:42;;;;;;;;;;;;;;;;;;;;;
2022/02/05 17:57:46;;;;;;;;;;;0.80;96.50;;;;;;4902805;29;19916;-93
2022/02/05 18:00:40;;;;;;;;;;;0.80;96.50;;;;;;4869494;29;19911;-93
2022/02/05 18:03:40;;;;;;;;;;;0.80;96.50;;;;;;4899208;29;19934;-93
2022/02/05 18:06:51;;;;;;;;;;;0.80;96.60;;;;;;4899507;29;19911;-92
2022/02/05 18:15:34;;;;;;;;;;;0.80;96.40;;;;;;4824316;29;19946;-92
2022/02/05 18:18:18;;;;;;;;;;;;;;;;;;;;;
2022/02/05 18:21:05;;;;;;;;;;;0.80;96.80;;;;;;4881431;29;19911;-93
2022/02/05 18:23:42;;;;;;;;;;;0.80;97.20;;;;;;4899981;29;19962;-93
2022/02/05 18:29:35;;;;;;;;;;;0.70;97.20;;;;;;4870833;29;19915;-92
2022/02/05 18:35:37;;;;;;;;;;;;;;;;;;;;;
2022/02/05 18:38:21;;;;;;;;;;;;;;;;;;;;;
2022/02/05 18:41:20;;;;;;;;;;;;;;;;;;;;;
2022/02/05 18:43:46;;;;;;;;;;;0.70;98.30;;;;;;4900970;29;19918;-93
2022/02/05 18:46:30;;;;;;;;;;;0.70;98.30;;;;;;4898838;29;20002;-93
2022/02/05 18:49:06;;;;;;;;;;;0.70;98.40;;;;;;4899723;29;20006;-93
2022/02/05 18:51:51;;;;;;;;;;;;;;;;;;;;;
2022/02/05 19:00:54;;;;;;;;;;;0.60;99.50;;;;;;4872677;29;19911;-92
2022/02/05 19:18:38;;;;;;;;;;;0.70;99.90;;;;;;4881491;29;19923;-93
2022/02/05 19:21:39;;;;;;;;;;;0.60;99.90;;;;;;4895693;29;19919;-93
2022/02/05 19:24:08;;;;;;;;;;;0.60;99.90;;;;;;4895498;29;19912;-92
2022/02/05 19:27:04;;;;;;;;;;;;;;;;;;;;;
2022/02/05 19:29:50;;;;;;;;;;;;;;;;;;;;;
2022/02/05 19:32:24;;;;;;;;;;;0.70;99.90;;;;;;4881389;29;19934;-92
2022/02/05 19:35:30;;;;;;;;;;;0.70;99.90;;;;;;4895991;29;19923;-93
2022/02/05 19:38:12;;;;;;;;;;;0.60;99.90;;;;;;4878176;29;19916;-93
2022/02/05 19:40:43;;;;;;;;;;;0.60;99.90;;;;;;4881397;29;19912;-93
2022/02/05 19:44:07;;;;;;;;;;;;;;;;;;;;;
2022/02/05 19:46:46;;;;;;;;;;;0.60;99.90;;;;;;4880815;29;19916;-92
2022/02/05 19:49:35;;;;;;;;;;;;;;;;;;;;;
2022/02/05 19:52:04;;;;;;;;;;;0.70;99.90;;;;;;4890877;29;19923;-93
2022/02/05 19:54:42;;;;;;;;;;;0.70;99.90;;;;;;4901918;29;19959;-93
2022/02/05 19:57:18;;;;;;;;;;;0.70;99.90;;;;;;4901988;29;20352;-93
2022/02/05 20:00:17;;;;;;;;;;;;;;;;;;;;;
2022/02/05 20:02:48;;;;;;;;;;;0.80;99.90;;;;;;4903320;29;19977;-92
2022/02/05 20:05:46;;;;;;;;;;;0.70;99.90;;;;;;4901832;29;19944;-92
2022/02/05 20:08:29;;;;;;;;;;;0.80;99.90;;;;;;4901719;29;19915;-92
2022/02/05 20:11:11;;;;;;;;;;;0.80;99.90;;;;;;4902450;29;19912;-93
2022/02/05 20:13:43;;;;;;;;;;;0.80;99.90;;;;;;4901225;29;20374;-92
2022/02/05 20:16:18;;;;;;;;;;;;;;;;;;;;;
2022/02/05 20:18:50;;;;;;;;;;;0.80;99.90;;;;;;4902842;29;19916;-93
2022/02/05 20:21:43;;;;;;;;;;;0.80;99.90;;;;;;4901579;29;19951;-93
2022/02/05 20:24:40;;;;;;;;;;;0.80;99.90;;;;;;4892161;29;19998;-93
2022/02/05 20:27:11;;;;;;;;;;;0.80;99.90;;;;;;4901317;29;20103;-93
2022/02/05 20:35:41;;;;;;;;;;;0.80;99.90;;;;;;4898410;29;19973;-93
2022/02/05 20:38:19;;;;;;;;;;;;;;;;;;;;;
2022/02/05 20:40:53;;;;;;;;;;;0.80;99.90;;;;;;4902942;29;19912;-93
2022/02/05 20:43:25;;;;;;;;;;;0.80;99.90;;;;;;4901529;29;19916;-92
2022/02/05 20:48:52;;;;;;;;;;;0.90;99.90;;;;;;4892165;29;19918;-92
2022/02/05 20:51:19;;;;;;;;;;;0.90;99.90;;;;;;4900633;29;19911;-92
2022/02/05 20:53:51;;;;;;;;;;;0.90;99.90;;;;;;4901039;29;19912;-93
2022/02/05 20:59:39;;;;;;;;;;;;;;;;;;;;;
2022/02/05 21:02:41;;;;;;;;;;;0.90;99.90;;;;;;4902232;29;19912;-93
2022/02/05 21:08:32;;;;;;;;;;;;;;;;;;;;;
2022/02/05 21:11:20;;;;;;;;;;;0.80;99.90;;;;;;4902503;29;19915;-93
2022/02/05 21:14:09;;;;;;;;;;;0.90;99.90;;;;;;4888922;29;19912;-93
2022/02/05 21:17:01;;;;;;;;;;;0.90;99.90;;;;;;4884587;29;19920;-93
2022/02/05 21:22:36;;;;;;;;;;;0.90;99.90;;;;;;4898618;29;19911;-93
2022/02/05 21:25:13;;;;;;;;;;;0.90;99.90;;;;;;4900450;29;20034;-93
2022/02/05 21:31:03;;;;;;;;;;;0.90;99.90;;;;;;4896456;29;19919;-93
2022/02/05 21:40:05;;;;;;;;;;;0.90;99.90;;;;;;4901270;29;19912;-93
2022/02/05 21:45:52;;;;;;;;;;;;;;;;;;;;;
2022/02/05 21:48:23;;;;;;;;;;;1.10;99.90;;;;;;4901447;29;19912;-93
2022/02/05 21:50:59;;;;;;;;;;;1.10;99.90;;;;;;4900508;29;19911;-93
2022/02/05 21:53:53;;;;;;;;;;;1.20;99.90;;;;;;4890084;29;19931;-92
2022/02/05 21:56:53;;;;;;;;;;;1.30;99.90;;;;;;4861289;29;19924;-93
2022/02/05 21:59:48;;;;;;;;;;;1.50;99.90;;;;;;4880621;29;19964;-93
2022/02/05 22:02:59;;;;;;;;;;;1.60;99.90;;;;;;4862177;29;20371;-93
2022/02/05 22:05:46;;;;;;;;;;;1.70;99.90;;;;;;4881245;29;20356;-93
2022/02/05 22:08:34;;;;;;;;;;;1.70;99.90;;;;;;4880481;29;19911;-93
2022/02/05 22:11:08;;;;;;;;;;;1.80;99.90;;;;;;4865091;29;19919;-94
2022/02/05 22:14:13;;;;;;;;;;;1.80;99.90;;;;;;4881192;29;19912;-92
2022/02/05 22:20:04;;;;;;;;;;;1.90;99.90;;;;;;4879968;29;19915;-91
2022/02/05 22:22:50;;;;;;;;;;;1.90;99.90;;;;;;4880762;29;19947;-91
2022/02/05 22:34:41;;;;;;;;;;;2.20;99.90;;;;;;4842839;29;20031;-92
2022/02/05 22:37:18;;;;;;;;;;;2.20;99.90;;;;;;4842587;29;20003;-94
2022/02/05 22:39:46;;;;;;;;;;;2.20;99.90;;;;;;4842900;29;19913;-94
2022/02/05 22:42:22;;;;;;;;;;;2.20;99.90;;;;;;4844161;29;19988;-92
2022/02/05 22:44:50;;;;;;;;;;;2.30;99.90;;;;;;4878782;29;19923;-91
2022/02/05 22:47:21;;;;;;;;;;;2.30;99.90;;;;;;4880998;29;20379;-92
2022/02/05 22:50:05;;;;;;;;;;;;;;;;;;;;;
2022/02/05 22:52:44;;;;;;;;;;;;;;;;;;;;;
2022/02/05 22:55:51;;;;;;;;;;;2.40;99.90;;;;;;4900090;29;19916;-91
2022/02/05 22:58:31;;;;;;;;;;;2.40;99.90;;;;;;4899287;29;19945;-91
2022/02/05 23:01:21;;;;;;;;;;;2.50;99.90;;;;;;4907338;29;19915;-92
2022/02/05 23:30:46;;;;;;;;;;;2.70;99.90;;;;;;4904151;29;19963;-91
2022/02/05 23:45:02;;;;;;;;;;;2.60;99.90;;;;;;4903592;29;19951;-91
2022/02/05 23:47:46;;;;;;;;;;;2.60;99.90;;;;;;4902594;29;19918;-92
2022/02/05 23:56:27;;;;;;;;;;;2.50;99.90;;;;;;4895418;29;19924;-92
2022/02/05 23:58:59;;;;;;;;;;;2.50;99.90;;;;;;4901838;29;20418;-91
